createdAt,value
2017-06-24T00:00:30.538Z,0
2017-06-24T00:01:39.484Z,0
2017-06-24T00:02:48.512Z,0
2017-06-24T00:03:57.452Z,0
2017-06-24T00:05:06.482Z,0
2017-06-24T00:06:15.681Z,0
2017-06-24T00:07:24.623Z,0
2017-06-24T00:08:33.566Z,0
2017-06-24T00:09:42.506Z,0
2017-06-24T00:10:51.445Z,0
2017-06-24T00:12:00.639Z,0
2017-06-24T00:13:09.582Z,0
2017-06-24T00:14:18.520Z,0
2017-06-24T00:15:27.463Z,0
2017-06-24T00:16:36.493Z,0
2017-06-24T00:17:45.687Z,0
2017-06-24T00:18:54.630Z,0
2017-06-24T00:20:03.568Z,0
2017-06-24T00:21:12.516Z,0
2017-06-24T00:22:21.464Z,0
2017-06-24T00:23:30.658Z,0
2017-06-24T00:24:39.602Z,0
2017-06-24T00:25:48.547Z,0
2017-06-24T00:26:57.492Z,0
2017-06-24T00:28:06.437Z,0
2017-06-24T00:29:15.633Z,0
2017-06-24T00:30:24.577Z,0
2017-06-24T00:31:33.518Z,0
2017-06-24T00:32:42.458Z,0
2017-06-24T00:33:51.399Z,0
2017-06-24T00:35:00.635Z,0
2017-06-24T00:36:09.575Z,0
2017-06-24T00:37:18.515Z,0
2017-06-24T00:38:27.458Z,0
2017-06-24T00:39:36.395Z,0
2017-06-24T00:40:45.668Z,0
2017-06-24T00:41:54.612Z,0
2017-06-24T00:43:03.555Z,0
2017-06-24T00:44:12.584Z,0
2017-06-24T00:45:21.526Z,0
2017-06-24T00:46:30.729Z,0
2017-06-24T00:47:39.671Z,0
2017-06-24T00:48:49.350Z,0
2017-06-24T00:49:58.292Z,0
2017-06-24T00:51:07.232Z,0
2017-06-24T00:52:16.425Z,0
2017-06-24T00:53:25.366Z,0
2017-06-24T00:54:34.303Z,0
2017-06-24T00:55:43.240Z,0
2017-06-24T00:56:52.264Z,0
2017-06-24T00:58:01.778Z,0
2017-06-24T00:59:10.720Z,0
2017-06-24T01:00:19.660Z,0
2017-06-24T01:01:28.601Z,0
2017-06-24T01:02:37.541Z,0
2017-06-24T01:03:46.734Z,0
2017-06-24T01:04:55.670Z,0
2017-06-24T01:06:04.612Z,0
2017-06-24T01:07:13.559Z,0
2017-06-24T01:08:22.502Z,0
2017-06-24T01:09:31.748Z,0
2017-06-24T01:10:40.691Z,0
2017-06-24T01:11:49.637Z,0
2017-06-24T01:12:58.579Z,0
2017-06-24T01:14:07.522Z,0
2017-06-24T01:15:16.712Z,0
2017-06-24T01:16:25.656Z,0
2017-06-24T01:17:34.598Z,0
2017-06-24T01:18:43.543Z,0
2017-06-24T01:19:52.483Z,0
2017-06-24T01:21:01.676Z,0
2017-06-24T01:22:10.619Z,0
2017-06-24T01:23:19.559Z,0
2017-06-24T01:24:28.502Z,0
2017-06-24T01:25:37.445Z,0
2017-06-24T01:26:46.640Z,0
2017-06-24T01:27:55.586Z,0
2017-06-24T01:29:04.533Z,0
2017-06-24T01:30:13.478Z,0
2017-06-24T01:31:22.426Z,0
2017-06-24T01:32:31.623Z,0
2017-06-24T01:33:40.565Z,0
2017-06-24T01:34:49.508Z,0
2017-06-24T01:35:58.484Z,0
2017-06-24T01:37:07.428Z,0
2017-06-24T01:38:16.627Z,0
2017-06-24T01:39:25.570Z,0
2017-06-24T01:40:34.510Z,0
2017-06-24T01:41:43.453Z,0
2017-06-24T01:42:52.397Z,0
2017-06-24T01:44:01.588Z,0
2017-06-24T01:45:10.536Z,0
2017-06-24T01:46:19.477Z,0
2017-06-24T01:47:28.507Z,0
2017-06-24T01:48:37.452Z,0
2017-06-24T01:49:46.646Z,0
2017-06-24T01:50:55.586Z,0
2017-06-24T01:52:04.531Z,0
2017-06-24T01:53:13.473Z,0
2017-06-24T01:54:22.417Z,0
2017-06-24T01:55:31.614Z,0
2017-06-24T01:56:40.556Z,0
2017-06-24T01:57:49.495Z,0
2017-06-24T01:58:58.437Z,0
2017-06-24T02:00:07.385Z,0
2017-06-24T02:01:16.579Z,0
2017-06-24T02:02:25.521Z,0
2017-06-24T02:03:34.464Z,0
2017-06-24T02:04:43.408Z,0
2017-06-24T02:05:52.351Z,0
2017-06-24T02:07:01.545Z,0
2017-06-24T02:08:10.493Z,0
2017-06-24T02:09:19.439Z,0
2017-06-24T02:10:28.381Z,0
2017-06-24T02:11:37.328Z,0
2017-06-24T02:12:46.518Z,0
2017-06-24T02:13:55.460Z,0
2017-06-24T02:15:04.403Z,0
2017-06-24T02:16:13.347Z,0
2017-06-24T02:17:22.286Z,0
2017-06-24T02:18:31.477Z,0
2017-06-24T02:19:40.414Z,0
2017-06-24T02:20:49.687Z,0
2017-06-24T02:21:58.633Z,0
2017-06-24T02:23:07.587Z,0
2017-06-24T02:24:17.106Z,0
2017-06-24T02:25:26.091Z,0
2017-06-24T02:26:35.035Z,0
2017-06-24T02:27:43.978Z,0
2017-06-24T02:28:52.925Z,0
2017-06-24T02:30:02.121Z,0
2017-06-24T02:31:11.386Z,0
2017-06-24T02:32:20.325Z,0
2017-06-24T02:33:29.264Z,0
2017-06-24T02:34:38.206Z,0
2017-06-24T02:35:47.397Z,0
2017-06-24T02:36:56.339Z,0
2017-06-24T02:38:05.366Z,0
2017-06-24T02:39:14.308Z,0
2017-06-24T02:40:23.250Z,0
2017-06-24T02:41:32.440Z,0
2017-06-24T02:42:41.386Z,0
2017-06-24T02:43:50.325Z,0
2017-06-24T02:44:59.267Z,0
2017-06-24T02:46:08.211Z,0
2017-06-24T02:47:17.405Z,0
2017-06-24T02:48:26.346Z,0
2017-06-24T02:49:35.285Z,0
2017-06-24T02:50:44.569Z,0
2017-06-24T02:51:53.514Z,0
2017-06-24T02:53:02.705Z,0
2017-06-24T02:54:11.644Z,0
2017-06-24T02:55:20.585Z,0
2017-06-24T02:56:29.529Z,0
2017-06-24T02:57:38.469Z,0
2017-06-24T02:58:47.659Z,0
2017-06-24T02:59:56.601Z,0
2017-06-24T03:01:05.541Z,0
2017-06-24T03:02:14.477Z,0
2017-06-24T03:03:23.417Z,0
2017-06-24T03:04:32.612Z,0
2017-06-24T03:05:41.555Z,0
2017-06-24T03:06:50.494Z,0
2017-06-24T03:07:59.442Z,0
2017-06-24T03:09:08.466Z,0
2017-06-24T03:10:17.662Z,0
2017-06-24T03:11:26.606Z,0
2017-06-24T03:12:35.550Z,0
2017-06-24T03:13:44.575Z,0
2017-06-24T03:14:53.515Z,0
2017-06-24T03:16:02.713Z,0
2017-06-24T03:17:11.657Z,0
2017-06-24T03:18:20.602Z,0
2017-06-24T03:19:29.544Z,0
2017-06-24T03:20:38.507Z,0
2017-06-24T03:21:48.033Z,0
2017-06-24T03:22:56.973Z,0
2017-06-24T03:24:05.916Z,0
2017-06-24T03:25:14.860Z,0
2017-06-24T03:26:23.803Z,0
2017-06-24T03:27:32.991Z,0
2017-06-24T03:28:41.939Z,0
2017-06-24T03:29:50.885Z,0
2017-06-24T03:30:59.825Z,0
2017-06-24T03:32:08.773Z,0
2017-06-24T03:33:17.960Z,0
2017-06-24T03:34:26.900Z,0
2017-06-24T03:35:35.848Z,0
2017-06-24T03:36:44.789Z,0
2017-06-24T03:37:53.729Z,0
2017-06-24T03:39:02.971Z,0
2017-06-24T03:40:11.910Z,0
2017-06-24T03:41:20.856Z,0
2017-06-24T03:42:29.797Z,5
2017-06-24T03:43:38.745Z,5
2017-06-24T03:44:47.936Z,5
2017-06-24T03:45:56.972Z,5
2017-06-24T03:47:05.914Z,5
2017-06-24T03:48:14.858Z,5
2017-06-24T03:49:24.122Z,5
2017-06-24T03:50:33.311Z,5
2017-06-24T03:51:42.254Z,5
2017-06-24T03:52:51.275Z,5
2017-06-24T03:54:00.217Z,5
2017-06-24T03:55:09.156Z,5
2017-06-24T03:56:18.346Z,5
2017-06-24T03:57:27.288Z,5
2017-06-24T03:58:36.225Z,5
2017-06-24T03:59:45.164Z,5
2017-06-24T04:00:54.107Z,5
2017-06-24T04:02:03.303Z,5
2017-06-24T04:03:12.252Z,5
2017-06-24T04:04:21.202Z,5
2017-06-24T04:05:30.170Z,5
2017-06-24T04:06:39.113Z,5
2017-06-24T04:07:48.357Z,5
2017-06-24T04:08:57.296Z,5
2017-06-24T04:10:06.562Z,5
2017-06-24T04:11:15.507Z,5
2017-06-24T04:12:24.458Z,5
2017-06-24T04:13:33.657Z,5
2017-06-24T04:14:42.947Z,5
2017-06-24T04:15:52.057Z,5
2017-06-24T04:17:01.002Z,5
2017-06-24T04:18:09.950Z,5
2017-06-24T04:19:19.142Z,5
2017-06-24T04:20:28.083Z,5
2017-06-24T04:21:37.026Z,10
2017-06-24T04:22:45.963Z,10
2017-06-24T04:23:54.897Z,10
2017-06-24T04:25:04.090Z,10
2017-06-24T04:26:13.035Z,10
2017-06-24T04:27:21.978Z,10
2017-06-24T04:28:30.919Z,10
2017-06-24T04:29:39.859Z,10
2017-06-24T04:30:49.049Z,10
2017-06-24T04:31:57.990Z,10
2017-06-24T04:33:06.937Z,10
2017-06-24T04:34:15.883Z,10
2017-06-24T04:35:24.828Z,10
2017-06-24T04:36:34.026Z,10
2017-06-24T04:37:42.960Z,10
2017-06-24T04:38:51.900Z,10
2017-06-24T04:40:00.837Z,10
2017-06-24T04:41:09.782Z,15
2017-06-24T04:42:19.025Z,15
2017-06-24T04:43:27.971Z,15
2017-06-24T04:44:37.008Z,15
2017-06-24T04:45:45.951Z,15
2017-06-24T04:46:54.894Z,15
2017-06-24T04:48:04.414Z,15
2017-06-24T04:49:13.353Z,10
2017-06-24T04:50:22.292Z,10
2017-06-24T04:51:31.235Z,10
2017-06-24T04:52:40.173Z,10
2017-06-24T04:53:49.417Z,10
2017-06-24T04:54:58.361Z,10
2017-06-24T04:56:07.336Z,10
2017-06-24T04:57:16.276Z,10
2017-06-24T04:58:25.216Z,10
2017-06-24T04:59:34.403Z,10
2017-06-24T05:00:43.431Z,10
2017-06-24T05:01:52.368Z,10
2017-06-24T05:03:01.312Z,10
2017-06-24T05:04:10.257Z,10
2017-06-24T05:05:19.449Z,10
2017-06-24T05:06:28.472Z,10
2017-06-24T05:07:37.410Z,10
2017-06-24T05:08:46.681Z,10
2017-06-24T05:09:55.625Z,10
2017-06-24T05:11:04.866Z,15
2017-06-24T05:12:13.811Z,15
2017-06-24T05:13:23.072Z,15
2017-06-24T05:14:32.012Z,20
2017-06-24T05:15:40.951Z,15
2017-06-24T05:16:50.146Z,15
2017-06-24T05:17:59.094Z,20
2017-06-24T05:19:08.118Z,15
2017-06-24T05:20:17.063Z,15
2017-06-24T05:21:26.007Z,15
2017-06-24T05:22:35.199Z,15
2017-06-24T05:23:44.134Z,20
2017-06-24T05:24:53.076Z,20
2017-06-24T05:26:02.019Z,20
2017-06-24T05:27:10.991Z,20
2017-06-24T05:28:20.852Z,20
2017-06-24T05:29:29.877Z,20
2017-06-24T05:30:38.815Z,20
2017-06-24T05:31:47.752Z,15
2017-06-24T05:32:56.696Z,15
2017-06-24T05:34:05.892Z,15
2017-06-24T05:35:14.837Z,15
2017-06-24T05:36:23.787Z,15
2017-06-24T05:37:32.726Z,20
2017-06-24T05:38:41.667Z,15
2017-06-24T05:39:50.855Z,15
2017-06-24T05:40:59.795Z,20
2017-06-24T05:42:08.740Z,20
2017-06-24T05:43:17.680Z,20
2017-06-24T05:44:26.625Z,15
2017-06-24T05:45:35.818Z,15
2017-06-24T05:46:44.762Z,15
2017-06-24T05:47:53.701Z,15
2017-06-24T05:49:02.643Z,20
2017-06-24T05:50:11.588Z,20
2017-06-24T05:51:20.781Z,20
2017-06-24T05:52:29.722Z,20
2017-06-24T05:53:38.660Z,15
2017-06-24T05:54:47.602Z,20
2017-06-24T05:55:56.547Z,20
2017-06-24T05:57:05.737Z,25
2017-06-24T05:58:14.708Z,25
2017-06-24T05:59:23.651Z,30
2017-06-24T06:00:32.591Z,30
2017-06-24T06:01:41.537Z,30
2017-06-24T06:02:50.733Z,30
2017-06-24T06:03:59.673Z,35
2017-06-24T06:05:08.937Z,40
2017-06-24T06:06:17.881Z,40
2017-06-24T06:07:26.824Z,45
2017-06-24T06:08:36.019Z,45
2017-06-24T06:09:44.973Z,45
2017-06-24T06:10:53.914Z,40
2017-06-24T06:12:02.935Z,35
2017-06-24T06:13:11.876Z,30
2017-06-24T06:14:21.069Z,30
2017-06-24T06:15:30.015Z,30
2017-06-24T06:16:38.959Z,30
2017-06-24T06:17:47.896Z,30
2017-06-24T06:18:56.834Z,25
2017-06-24T06:20:06.036Z,25
2017-06-24T06:21:14.979Z,25
2017-06-24T06:22:23.944Z,25
2017-06-24T06:23:32.879Z,25
2017-06-24T06:24:41.820Z,25
2017-06-24T06:25:51.012Z,30
2017-06-24T06:26:59.952Z,30
2017-06-24T06:28:08.899Z,25
2017-06-24T06:29:17.923Z,25
2017-06-24T06:30:26.870Z,20
2017-06-24T06:31:36.061Z,15
2017-06-24T06:32:45.003Z,15
2017-06-24T06:33:53.945Z,20
2017-06-24T06:35:02.897Z,25
2017-06-24T06:36:11.837Z,25
2017-06-24T06:37:21.024Z,30
2017-06-24T06:38:29.963Z,30
2017-06-24T06:39:38.908Z,25
2017-06-24T06:40:47.856Z,25
2017-06-24T06:41:56.797Z,25
2017-06-24T06:43:05.991Z,30
2017-06-24T06:44:14.935Z,30
2017-06-24T06:45:23.876Z,30
2017-06-24T06:46:32.815Z,35
2017-06-24T06:47:41.760Z,45
2017-06-24T06:48:50.951Z,50
2017-06-24T06:49:59.913Z,50
2017-06-24T06:51:08.858Z,50
2017-06-24T06:52:17.806Z,45
2017-06-24T06:53:26.748Z,35
2017-06-24T06:54:35.938Z,35
2017-06-24T06:55:44.882Z,35
2017-06-24T06:56:53.823Z,40
2017-06-24T06:58:02.767Z,40
2017-06-24T06:59:11.712Z,45
2017-06-24T07:00:20.906Z,45
2017-06-24T07:01:29.853Z,45
2017-06-24T07:02:38.796Z,45
2017-06-24T07:03:48.052Z,45
2017-06-24T07:04:57.002Z,45
2017-06-24T07:06:06.193Z,45
2017-06-24T07:07:15.135Z,40
2017-06-24T07:08:24.074Z,35
2017-06-24T07:09:33.013Z,35
2017-06-24T07:10:41.962Z,35
2017-06-24T07:11:51.164Z,40
2017-06-24T07:13:00.112Z,45
2017-06-24T07:14:09.055Z,50
2017-06-24T07:15:18.001Z,45
2017-06-24T07:16:26.944Z,40
2017-06-24T07:17:36.466Z,45
2017-06-24T07:18:45.402Z,45
2017-06-24T07:19:54.346Z,55
2017-06-24T07:21:03.290Z,60
2017-06-24T07:22:12.231Z,55
2017-06-24T07:23:21.425Z,55
2017-06-24T07:24:30.371Z,55
2017-06-24T07:25:39.317Z,50
2017-06-24T07:26:48.260Z,45
2017-06-24T07:27:57.530Z,40
2017-06-24T07:29:06.727Z,45
2017-06-24T07:30:15.667Z,50
2017-06-24T07:31:24.604Z,50
2017-06-24T07:32:33.547Z,45
2017-06-24T07:33:42.488Z,40
2017-06-24T07:34:51.680Z,45
2017-06-24T07:36:00.622Z,45
2017-06-24T07:37:09.562Z,45
2017-06-24T07:38:19.163Z,40
2017-06-24T07:39:28.430Z,40
2017-06-24T07:40:37.998Z,50
2017-06-24T07:41:46.947Z,50
2017-06-24T07:42:55.887Z,55
2017-06-24T07:44:04.828Z,55
2017-06-24T07:45:13.772Z,50
2017-06-24T07:46:22.970Z,40
2017-06-24T07:47:31.909Z,35
2017-06-24T07:48:40.934Z,35
2017-06-24T07:49:49.873Z,35
2017-06-24T07:50:58.896Z,35
2017-06-24T07:52:08.090Z,35
2017-06-24T07:53:17.042Z,35
2017-06-24T07:54:25.981Z,30
2017-06-24T07:55:34.923Z,25
2017-06-24T07:56:43.865Z,25
2017-06-24T07:57:53.106Z,25
2017-06-24T07:59:02.049Z,25
2017-06-24T08:00:11.075Z,25
2017-06-24T08:01:20.015Z,25
2017-06-24T08:02:28.959Z,25
2017-06-24T08:03:38.171Z,20
2017-06-24T08:04:47.111Z,20
2017-06-24T08:05:56.051Z,20
2017-06-24T08:07:04.989Z,20
2017-06-24T08:08:13.933Z,25
2017-06-24T08:09:23.123Z,25
2017-06-24T08:10:32.064Z,25
2017-06-24T08:11:41.006Z,25
2017-06-24T08:12:49.947Z,25
2017-06-24T08:13:58.885Z,25
2017-06-24T08:15:08.128Z,30
2017-06-24T08:16:17.068Z,30
2017-06-24T08:17:26.011Z,30
2017-06-24T08:18:34.960Z,25
2017-06-24T08:19:43.903Z,25
2017-06-24T08:20:53.096Z,25
2017-06-24T08:22:02.046Z,25
2017-06-24T08:23:11.631Z,25
2017-06-24T08:24:20.573Z,25
2017-06-24T08:25:29.513Z,25
2017-06-24T08:26:38.708Z,25
2017-06-24T08:27:47.651Z,25
2017-06-24T08:28:56.589Z,25
2017-06-24T08:30:05.530Z,25
2017-06-24T08:31:14.555Z,25
2017-06-24T08:32:23.746Z,30
2017-06-24T08:33:32.685Z,30
2017-06-24T08:34:41.629Z,25
2017-06-24T08:35:50.567Z,25
2017-06-24T08:36:59.509Z,25
2017-06-24T08:38:08.706Z,20
2017-06-24T08:39:17.656Z,25
2017-06-24T08:40:26.598Z,25
2017-06-24T08:41:35.539Z,30
2017-06-24T08:42:44.480Z,30
2017-06-24T08:43:53.666Z,35
2017-06-24T08:45:02.610Z,30
2017-06-24T08:46:11.553Z,30
2017-06-24T08:47:20.497Z,35
2017-06-24T08:48:29.439Z,50
2017-06-24T08:49:38.638Z,55
2017-06-24T08:50:47.583Z,50
2017-06-24T08:51:56.528Z,45
2017-06-24T08:53:05.477Z,45
2017-06-24T08:54:14.421Z,45
2017-06-24T08:55:23.615Z,45
2017-06-24T08:56:32.556Z,45
2017-06-24T08:57:41.499Z,45
2017-06-24T08:58:50.447Z,45
2017-06-24T08:59:59.384Z,45
2017-06-24T09:01:08.964Z,35
2017-06-24T09:02:17.911Z,30
2017-06-24T09:03:27.177Z,35
2017-06-24T09:04:36.119Z,55
2017-06-24T09:05:45.068Z,65
2017-06-24T09:06:54.398Z,65
2017-06-24T09:08:03.338Z,55
2017-06-24T09:09:12.282Z,60
2017-06-24T09:10:21.309Z,60
2017-06-24T09:11:30.257Z,80
2017-06-24T09:12:39.457Z,90
2017-06-24T09:13:48.401Z,65
2017-06-24T09:14:57.340Z,60
2017-06-24T09:16:06.284Z,65
2017-06-24T09:17:15.223Z,60
2017-06-24T09:18:24.415Z,60
2017-06-24T09:19:33.357Z,65
2017-06-24T09:20:42.298Z,70
2017-06-24T09:21:51.243Z,70
2017-06-24T09:23:00.188Z,80
2017-06-24T09:24:09.382Z,85
2017-06-24T09:25:18.329Z,85
2017-06-24T09:26:27.356Z,75
2017-06-24T09:27:36.300Z,65
2017-06-24T09:28:45.242Z,60
2017-06-24T09:29:54.435Z,55
2017-06-24T09:31:03.374Z,55
2017-06-24T09:32:12.400Z,50
2017-06-24T09:33:21.339Z,45
2017-06-24T09:34:30.280Z,50
2017-06-24T09:35:39.477Z,55
2017-06-24T09:36:48.424Z,50
2017-06-24T09:37:57.367Z,55
2017-06-24T09:39:06.647Z,55
2017-06-24T09:40:15.588Z,55
2017-06-24T09:41:24.783Z,50
2017-06-24T09:42:33.724Z,55
2017-06-24T09:43:42.668Z,60
2017-06-24T09:44:51.607Z,55
2017-06-24T09:46:00.548Z,50
2017-06-24T09:47:09.741Z,55
2017-06-24T09:48:18.680Z,45
2017-06-24T09:49:27.626Z,40
2017-06-24T09:50:36.655Z,50
2017-06-24T09:51:45.596Z,50
2017-06-24T09:52:54.792Z,40
2017-06-24T09:54:03.732Z,45
2017-06-24T09:55:12.673Z,45
2017-06-24T09:56:21.617Z,50
2017-06-24T09:57:30.606Z,50
2017-06-24T09:58:39.847Z,50
2017-06-24T09:59:48.790Z,45
2017-06-24T10:00:57.733Z,40
2017-06-24T10:02:06.677Z,35
2017-06-24T10:03:15.617Z,30
2017-06-24T10:04:24.808Z,35
2017-06-24T10:05:33.751Z,45
2017-06-24T10:06:42.734Z,55
2017-06-24T10:07:51.677Z,55
2017-06-24T10:09:00.623Z,55
2017-06-24T10:10:09.816Z,55
2017-06-24T10:11:18.756Z,55
2017-06-24T10:12:27.697Z,55
2017-06-24T10:13:36.649Z,55
2017-06-24T10:14:45.591Z,55
2017-06-24T10:15:54.786Z,50
2017-06-24T10:17:04.079Z,55
2017-06-24T10:18:13.340Z,55
2017-06-24T10:19:22.281Z,50
2017-06-24T10:20:31.311Z,55
2017-06-24T10:21:40.515Z,55
2017-06-24T10:22:49.452Z,55
2017-06-24T10:23:58.395Z,55
2017-06-24T10:25:07.360Z,60
2017-06-24T10:26:16.301Z,70
2017-06-24T10:27:25.668Z,75
2017-06-24T10:28:34.611Z,95
2017-06-24T10:29:43.558Z,100
2017-06-24T10:30:52.500Z,90
2017-06-24T10:32:01.444Z,80
2017-06-24T10:33:10.971Z,65
2017-06-24T10:34:19.913Z,65
2017-06-24T10:35:28.942Z,55
2017-06-24T10:36:37.887Z,55
2017-06-24T10:37:46.830Z,55
2017-06-24T10:38:56.023Z,55
2017-06-24T10:40:04.965Z,55
2017-06-24T10:41:13.911Z,60
2017-06-24T10:42:22.854Z,60
2017-06-24T10:43:31.801Z,55
2017-06-24T10:44:41.046Z,55
2017-06-24T10:45:49.988Z,55
2017-06-24T10:46:58.933Z,55
2017-06-24T10:48:07.878Z,55
2017-06-24T10:49:16.822Z,55
2017-06-24T10:50:26.010Z,55
2017-06-24T10:51:34.956Z,50
2017-06-24T10:52:43.899Z,50
2017-06-24T10:53:52.845Z,50
2017-06-24T10:55:01.787Z,50
2017-06-24T10:56:11.029Z,50
2017-06-24T10:57:19.972Z,55
2017-06-24T10:58:28.912Z,65
2017-06-24T10:59:37.862Z,80
2017-06-24T11:00:46.810Z,85
2017-06-24T11:01:56.004Z,85
2017-06-24T11:03:04.948Z,100
2017-06-24T11:04:13.892Z,100
2017-06-24T11:05:22.835Z,100
2017-06-24T11:06:31.780Z,100
2017-06-24T11:07:40.973Z,85
2017-06-24T11:08:49.916Z,80
2017-06-24T11:09:58.861Z,90
2017-06-24T11:11:07.805Z,65
2017-06-24T11:12:16.751Z,60
2017-06-24T11:13:25.947Z,60
2017-06-24T11:14:34.905Z,55
2017-06-24T11:15:43.874Z,50
2017-06-24T11:16:52.817Z,55
2017-06-24T11:18:01.760Z,55
2017-06-24T11:19:10.954Z,35
2017-06-24T11:20:19.898Z,40
2017-06-24T11:21:28.846Z,45
2017-06-24T11:22:37.796Z,45
2017-06-24T11:23:46.734Z,45
2017-06-24T11:24:56.016Z,50
2017-06-24T11:26:04.967Z,50
2017-06-24T11:27:13.915Z,40
2017-06-24T11:28:22.899Z,40
2017-06-24T11:29:31.840Z,45
2017-06-24T11:30:41.083Z,50
2017-06-24T11:31:50.027Z,55
2017-06-24T11:32:58.971Z,55
2017-06-24T11:34:07.916Z,55
2017-06-24T11:35:16.859Z,60
2017-06-24T11:36:26.142Z,75
2017-06-24T11:37:35.090Z,65
2017-06-24T11:38:44.033Z,60
2017-06-24T11:39:52.970Z,65
2017-06-24T11:41:01.914Z,60
2017-06-24T11:42:11.162Z,60
2017-06-24T11:43:20.104Z,50
2017-06-24T11:44:29.130Z,50
2017-06-24T11:45:38.066Z,50
2017-06-24T11:46:47.012Z,50
2017-06-24T11:47:56.208Z,55
2017-06-24T11:49:05.154Z,55
2017-06-24T11:50:14.434Z,55
2017-06-24T11:51:23.384Z,55
2017-06-24T11:52:32.329Z,60
2017-06-24T11:53:41.526Z,45
2017-06-24T11:54:50.467Z,35
2017-06-24T11:55:59.410Z,35
2017-06-24T11:57:08.363Z,40
2017-06-24T11:58:17.318Z,60
2017-06-24T11:59:26.511Z,80
2017-06-24T12:00:35.459Z,80
2017-06-24T12:01:44.404Z,60
2017-06-24T12:02:53.348Z,75
2017-06-24T12:04:02.289Z,90
2017-06-24T12:05:11.490Z,75
2017-06-24T12:06:20.435Z,80
2017-06-24T12:07:29.379Z,90
2017-06-24T12:08:38.323Z,85
2017-06-24T12:09:47.270Z,75
2017-06-24T12:10:56.466Z,85
2017-06-24T12:12:05.411Z,80
2017-06-24T12:13:14.354Z,90
2017-06-24T12:14:23.289Z,95
2017-06-24T12:15:32.234Z,95
2017-06-24T12:16:41.432Z,90
2017-06-24T12:17:50.384Z,90
2017-06-24T12:18:59.329Z,90
2017-06-24T12:20:08.272Z,100
2017-06-24T12:21:17.218Z,95
2017-06-24T12:22:26.411Z,95
2017-06-24T12:23:35.354Z,90
2017-06-24T12:24:44.300Z,105
2017-06-24T12:25:53.328Z,110
2017-06-24T12:27:02.274Z,100
2017-06-24T12:28:11.514Z,100
2017-06-24T12:29:20.541Z,105
2017-06-24T12:30:29.481Z,115
2017-06-24T12:31:38.425Z,110
2017-06-24T12:32:47.370Z,90
2017-06-24T12:33:56.564Z,85
2017-06-24T12:35:05.510Z,110
2017-06-24T12:36:14.454Z,110
2017-06-24T12:37:23.403Z,100
2017-06-24T12:38:32.346Z,90
2017-06-24T12:39:41.542Z,90
2017-06-24T12:40:50.481Z,90
2017-06-24T12:41:59.428Z,80
2017-06-24T12:43:08.706Z,85
2017-06-24T12:44:17.651Z,75
2017-06-24T12:45:26.846Z,90
2017-06-24T12:46:35.788Z,95
2017-06-24T12:47:44.729Z,110
2017-06-24T12:48:53.673Z,100
2017-06-24T12:50:02.618Z,90
2017-06-24T12:51:11.813Z,85
2017-06-24T12:52:20.758Z,95
2017-06-24T12:53:29.698Z,85
2017-06-24T12:54:38.639Z,80
2017-06-24T12:55:47.584Z,95
2017-06-24T12:56:56.775Z,100
2017-06-24T12:58:05.716Z,125
2017-06-24T12:59:14.658Z,115
2017-06-24T13:00:23.606Z,100
2017-06-24T13:01:32.553Z,100
2017-06-24T13:02:41.748Z,90
2017-06-24T13:03:50.693Z,85
2017-06-24T13:04:59.640Z,100
2017-06-24T13:06:08.597Z,95
2017-06-24T13:07:17.543Z,90
2017-06-24T13:08:26.739Z,100
2017-06-24T13:09:35.682Z,90
2017-06-24T13:10:44.628Z,90
2017-06-24T13:11:53.576Z,85
2017-06-24T13:13:02.518Z,90
2017-06-24T13:14:11.800Z,90
2017-06-24T13:15:20.744Z,80
2017-06-24T13:16:29.690Z,90
2017-06-24T13:17:38.651Z,95
2017-06-24T13:18:47.599Z,90
2017-06-24T13:19:56.793Z,95
2017-06-24T13:21:05.743Z,90
2017-06-24T13:22:14.687Z,90
2017-06-24T13:23:23.630Z,90
2017-06-24T13:24:32.576Z,85
2017-06-24T13:25:41.772Z,90
2017-06-24T13:26:50.720Z,80
2017-06-24T13:27:59.676Z,85
2017-06-24T13:29:08.630Z,90
2017-06-24T13:30:17.567Z,85
2017-06-24T13:31:26.766Z,80
2017-06-24T13:32:35.708Z,80
2017-06-24T13:33:44.653Z,75
2017-06-24T13:34:54.014Z,80
2017-06-24T13:36:03.040Z,80
2017-06-24T13:37:12.233Z,85
2017-06-24T13:38:21.179Z,85
2017-06-24T13:39:30.122Z,85
2017-06-24T13:40:39.068Z,75
2017-06-24T13:41:48.011Z,70
2017-06-24T13:42:57.254Z,80
2017-06-24T13:44:06.530Z,90
2017-06-24T13:45:15.470Z,90
2017-06-24T13:46:24.413Z,100
2017-06-24T13:47:33.362Z,90
2017-06-24T13:48:42.554Z,90
2017-06-24T13:49:51.820Z,80
2017-06-24T13:51:00.761Z,80
2017-06-24T13:52:09.710Z,80
2017-06-24T13:53:18.654Z,80
2017-06-24T13:54:27.986Z,80
2017-06-24T13:55:37.018Z,70
2017-06-24T13:56:45.962Z,60
2017-06-24T13:57:54.907Z,55
2017-06-24T13:59:04.180Z,50
2017-06-24T14:00:13.425Z,50
2017-06-24T14:01:22.373Z,50
2017-06-24T14:02:31.313Z,45
2017-06-24T14:03:40.274Z,40
2017-06-24T14:04:49.225Z,40
2017-06-24T14:05:58.560Z,45
2017-06-24T14:07:07.502Z,55
2017-06-24T14:08:16.444Z,65
2017-06-24T14:09:25.390Z,60
2017-06-24T14:10:34.335Z,55
2017-06-24T14:11:43.529Z,55
2017-06-24T14:12:52.478Z,60
2017-06-24T14:14:01.421Z,70
2017-06-24T14:15:10.364Z,70
2017-06-24T14:16:19.308Z,70
2017-06-24T14:17:28.528Z,65
2017-06-24T14:18:37.504Z,70
2017-06-24T14:19:46.449Z,65
2017-06-24T14:20:55.387Z,65
2017-06-24T14:22:04.337Z,60
2017-06-24T14:23:13.530Z,60
2017-06-24T14:24:22.473Z,60
2017-06-24T14:25:31.501Z,65
2017-06-24T14:26:40.440Z,65
2017-06-24T14:27:49.388Z,65
2017-06-24T14:28:58.587Z,60
2017-06-24T14:30:07.531Z,60
2017-06-24T14:31:16.470Z,60
2017-06-24T14:32:25.414Z,55
2017-06-24T14:33:34.355Z,55
2017-06-24T14:34:43.556Z,50
2017-06-24T14:35:52.500Z,45
2017-06-24T14:37:01.438Z,45
2017-06-24T14:38:10.380Z,40
2017-06-24T14:39:19.325Z,40
2017-06-24T14:40:28.604Z,45
2017-06-24T14:41:37.545Z,45
2017-06-24T14:42:46.491Z,40
2017-06-24T14:43:55.448Z,40
2017-06-24T14:45:04.726Z,35
2017-06-24T14:46:13.916Z,35
2017-06-24T14:47:22.868Z,35
2017-06-24T14:48:31.893Z,35
2017-06-24T14:49:40.841Z,35
2017-06-24T14:50:49.784Z,30
2017-06-24T14:51:58.977Z,35
2017-06-24T14:53:07.926Z,40
2017-06-24T14:54:16.871Z,45
2017-06-24T14:55:25.818Z,45
2017-06-24T14:56:34.783Z,40
2017-06-24T14:57:43.977Z,35
2017-06-24T14:58:52.922Z,40
2017-06-24T15:00:01.864Z,35
2017-06-24T15:01:10.811Z,35
2017-06-24T15:02:19.859Z,40
2017-06-24T15:03:29.056Z,45
2017-06-24T15:04:37.996Z,45
2017-06-24T15:05:46.939Z,40
2017-06-24T15:06:55.886Z,40
2017-06-24T15:08:05.152Z,45
2017-06-24T15:09:14.348Z,40
2017-06-24T15:10:23.373Z,40
2017-06-24T15:11:32.322Z,40
2017-06-24T15:12:41.263Z,40
2017-06-24T15:13:50.205Z,35
2017-06-24T15:14:59.448Z,35
2017-06-24T15:16:08.727Z,35
2017-06-24T15:17:17.677Z,30
2017-06-24T15:18:26.703Z,35
2017-06-24T15:19:35.646Z,35
2017-06-24T15:20:44.838Z,35
2017-06-24T15:21:53.790Z,30
2017-06-24T15:23:02.745Z,30
2017-06-24T15:24:11.693Z,30
2017-06-24T15:25:20.634Z,30
2017-06-24T15:26:29.833Z,30
2017-06-24T15:27:38.781Z,35
2017-06-24T15:28:47.729Z,30
2017-06-24T15:29:56.670Z,25
2017-06-24T15:31:05.613Z,25
2017-06-24T15:32:14.805Z,25
2017-06-24T15:33:23.748Z,25
2017-06-24T15:34:32.693Z,30
2017-06-24T15:35:41.670Z,30
2017-06-24T15:36:50.614Z,35
2017-06-24T15:37:59.810Z,40
2017-06-24T15:39:08.756Z,35
2017-06-24T15:40:17.699Z,25
2017-06-24T15:41:26.645Z,20
2017-06-24T15:42:35.587Z,25
2017-06-24T15:43:44.834Z,25
2017-06-24T15:44:53.780Z,30
2017-06-24T15:46:02.721Z,30
2017-06-24T15:47:11.757Z,25
2017-06-24T15:48:20.700Z,25
2017-06-24T15:49:29.941Z,25
2017-06-24T15:50:38.890Z,35
2017-06-24T15:51:47.834Z,40
2017-06-24T15:52:56.777Z,35
2017-06-24T15:54:05.723Z,35
2017-06-24T15:55:14.970Z,35
2017-06-24T15:56:23.913Z,40
2017-06-24T15:57:32.861Z,45
2017-06-24T15:58:41.831Z,45
2017-06-24T15:59:50.776Z,45
2017-06-24T16:01:00.345Z,50
2017-06-24T16:02:09.298Z,45
2017-06-24T16:03:18.566Z,45
2017-06-24T16:04:27.504Z,45
2017-06-24T16:05:36.767Z,45
2017-06-24T16:06:46.014Z,40
2017-06-24T16:07:54.962Z,35
2017-06-24T16:09:03.911Z,30
2017-06-24T16:10:13.197Z,30
2017-06-24T16:11:22.140Z,25
2017-06-24T16:12:31.341Z,25
2017-06-24T16:13:40.285Z,25
2017-06-24T16:14:49.229Z,30
2017-06-24T16:15:58.182Z,25
2017-06-24T16:17:07.125Z,25
2017-06-24T16:18:16.312Z,30
2017-06-24T16:19:25.258Z,25
2017-06-24T16:20:34.206Z,30
2017-06-24T16:21:43.148Z,35
2017-06-24T16:22:52.092Z,35
2017-06-24T16:24:01.287Z,35
2017-06-24T16:25:10.265Z,35
2017-06-24T16:26:19.207Z,35
2017-06-24T16:27:28.149Z,40
2017-06-24T16:28:37.107Z,35
2017-06-24T16:29:46.308Z,35
2017-06-24T16:30:55.254Z,35
2017-06-24T16:32:04.197Z,35